createdAt,value
2016-12-15T00:00:10.264Z,-7.27
2016-12-15T00:01:18.983Z,-7.28
2016-12-15T00:02:27.665Z,-7.28
2016-12-15T00:03:36.346Z,-7.23
2016-12-15T00:04:45.027Z,-7.07
2016-12-15T00:05:53.708Z,-7.09
2016-12-15T00:07:02.393Z,-7.1
2016-12-15T00:08:11.076Z,-7
2016-12-15T00:09:19.756Z,-7
2016-12-15T00:10:28.466Z,-6.91
2016-12-15T00:11:37.151Z,-6.96
2016-12-15T00:12:45.832Z,-6.92
2016-12-15T00:13:54.513Z,-6.96
2016-12-15T00:15:03.195Z,-6.95
2016-12-15T00:16:11.918Z,-6.86
2016-12-15T00:17:20.600Z,-6.76
2016-12-15T00:18:29.275Z,-6.86
2016-12-15T00:19:37.959Z,-6.79
2016-12-15T00:20:46.642Z,-6.66
2016-12-15T00:21:55.329Z,-6.6
2016-12-15T00:23:04.004Z,-6.54
2016-12-15T00:24:12.686Z,-6.6
2016-12-15T00:25:21.372Z,-6.46
2016-12-15T00:26:30.054Z,-6.45
2016-12-15T00:27:38.750Z,-6.48
2016-12-15T00:28:47.426Z,-6.39
2016-12-15T00:29:56.109Z,-6.28
2016-12-15T00:31:04.817Z,-6.31
2016-12-15T00:32:13.500Z,-6.34
2016-12-15T00:33:22.179Z,-6.26
2016-12-15T00:34:30.856Z,-6.28
2016-12-15T00:35:39.532Z,-6.21
2016-12-15T00:36:48.215Z,-6.28
2016-12-15T00:37:56.898Z,-6.07
2016-12-15T00:39:05.585Z,-6.24
2016-12-15T00:40:14.270Z,-6.23
2016-12-15T00:41:22.949Z,-6.27
2016-12-15T00:42:31.632Z,-6.16
2016-12-15T00:43:40.313Z,-6.09
2016-12-15T00:44:49.020Z,-6.06
2016-12-15T00:45:57.703Z,-6.09
2016-12-15T00:47:06.388Z,-6.16
2016-12-15T00:48:15.071Z,-6.1
2016-12-15T00:49:23.751Z,-6.2
2016-12-15T00:50:32.431Z,-6.3
2016-12-15T00:51:41.112Z,-6.21
2016-12-15T00:52:49.794Z,-6.31
2016-12-15T00:53:58.485Z,-6.38
2016-12-15T00:55:07.169Z,-6.3
2016-12-15T00:56:15.851Z,-6.3
2016-12-15T00:57:24.533Z,-6.39
2016-12-15T00:58:33.215Z,-6.33
2016-12-15T00:59:41.903Z,-6.38
2016-12-15T01:00:50.590Z,-6.41
2016-12-15T01:01:59.587Z,-6.41
2016-12-15T01:03:08.275Z,-6.54
2016-12-15T01:04:16.956Z,-6.45
2016-12-15T01:05:25.665Z,-6.46
2016-12-15T01:06:34.343Z,-6.52
2016-12-15T01:07:43.021Z,-6.54
2016-12-15T01:08:51.704Z,-6.46
2016-12-15T01:10:00.394Z,-6.34
2016-12-15T01:11:09.072Z,-6.33
2016-12-15T01:12:17.762Z,-6.33
2016-12-15T01:13:26.445Z,-6.33
2016-12-15T01:14:35.157Z,-6.39
2016-12-15T01:15:43.856Z,-6.36
2016-12-15T01:16:52.537Z,-6.34
2016-12-15T01:18:01.258Z,-6.33
2016-12-15T01:19:09.944Z,-6.28
2016-12-15T01:20:18.629Z,-6.23
2016-12-15T01:21:27.316Z,-6.26
2016-12-15T01:22:35.994Z,-6.12
2016-12-15T01:23:44.675Z,-6.1
2016-12-15T01:24:53.386Z,-6.09
2016-12-15T01:26:02.074Z,-6.09
2016-12-15T01:27:10.758Z,-6.09
2016-12-15T01:28:19.441Z,-6.06
2016-12-15T01:29:28.164Z,-6.06
2016-12-15T01:30:36.844Z,-6.05
2016-12-15T01:31:45.527Z,-6.06
2016-12-15T01:32:54.238Z,-6.05
2016-12-15T01:34:02.928Z,-6.02
2016-12-15T01:35:11.608Z,-5.92
2016-12-15T01:36:20.284Z,-5.94
2016-12-15T01:37:28.969Z,-5.94
2016-12-15T01:38:37.653Z,-5.89
2016-12-15T01:39:46.331Z,-5.89
2016-12-15T01:40:55.012Z,-6.06
2016-12-15T01:42:03.692Z,-6.13
2016-12-15T01:43:12.375Z,-6.1
2016-12-15T01:44:21.064Z,-6.27
2016-12-15T01:45:29.748Z,-6.38
2016-12-15T01:46:38.459Z,-6.49
2016-12-15T01:47:47.143Z,-6.63
2016-12-15T01:48:55.834Z,-6.6
2016-12-15T01:50:04.538Z,-6.61
2016-12-15T01:51:13.538Z,-6.7
2016-12-15T01:52:22.227Z,-6.68
2016-12-15T01:53:30.914Z,-6.68
2016-12-15T01:54:39.598Z,-6.76
2016-12-15T01:55:48.285Z,-6.71
2016-12-15T01:56:56.972Z,-6.76
2016-12-15T01:58:05.656Z,-6.76
2016-12-15T01:59:14.335Z,-6.81
2016-12-15T02:00:23.341Z,-6.73
2016-12-15T02:01:32.022Z,-6.84
2016-12-15T02:02:40.708Z,-6.76
2016-12-15T02:03:49.392Z,-6.78
2016-12-15T02:04:58.075Z,-6.76
2016-12-15T02:06:06.758Z,-6.79
2016-12-15T02:07:15.442Z,-6.81
2016-12-15T02:08:24.125Z,-6.78
2016-12-15T02:09:32.807Z,-6.75
2016-12-15T02:10:41.486Z,-6.73
2016-12-15T02:11:50.168Z,-6.76
2016-12-15T02:12:58.885Z,-6.71
2016-12-15T02:14:07.569Z,-6.68
2016-12-15T02:15:16.248Z,-6.7
2016-12-15T02:16:24.933Z,-6.66
2016-12-15T02:17:33.641Z,-6.61
2016-12-15T02:18:42.320Z,-6.61
2016-12-15T02:19:51.031Z,-6.52
2016-12-15T02:20:59.715Z,-6.51
2016-12-15T02:22:08.396Z,-6.45
2016-12-15T02:23:17.076Z,-6.39
2016-12-15T02:24:25.753Z,-6.34
2016-12-15T02:25:34.433Z,-6.31
2016-12-15T02:26:43.116Z,-6.33
2016-12-15T02:27:51.807Z,-6.26
2016-12-15T02:29:00.518Z,-6.2
2016-12-15T02:30:09.221Z,-6.15
2016-12-15T02:31:17.904Z,-6.06
2016-12-15T02:32:26.594Z,-6.16
2016-12-15T02:33:35.285Z,-6.13
2016-12-15T02:34:43.965Z,-6.09
2016-12-15T02:35:52.646Z,-6.03
2016-12-15T02:37:01.334Z,-6.15
2016-12-15T02:38:10.018Z,-6.1
2016-12-15T02:39:18.697Z,-6.24
2016-12-15T02:40:27.381Z,-6.12
2016-12-15T02:41:36.068Z,-6.1
2016-12-15T02:42:44.748Z,-6.09
2016-12-15T02:43:53.432Z,-6.03
2016-12-15T02:45:02.113Z,-6.1
2016-12-15T02:46:10.796Z,-6.12
2016-12-15T02:47:19.474Z,-6.16
2016-12-15T02:48:28.162Z,-6.2
2016-12-15T02:49:36.848Z,-6.21
2016-12-15T02:50:45.535Z,-6.26
2016-12-15T02:51:54.253Z,-6.23
2016-12-15T02:53:02.939Z,-6.23
2016-12-15T02:54:11.624Z,-6.26
2016-12-15T02:55:20.311Z,-6.27
2016-12-15T02:56:29.000Z,-6.28
2016-12-15T02:57:37.679Z,-6.3
2016-12-15T02:58:46.386Z,-6.41
2016-12-15T02:59:55.064Z,-6.33
2016-12-15T03:01:03.739Z,-6.52
2016-12-15T03:02:12.425Z,-6.46
2016-12-15T03:03:21.113Z,-6.51
2016-12-15T03:04:29.791Z,-6.42
2016-12-15T03:05:38.471Z,-6.42
2016-12-15T03:06:47.158Z,-6.31
2016-12-15T03:07:55.836Z,-6.31
2016-12-15T03:09:04.530Z,-6.26
2016-12-15T03:10:13.211Z,-6.28
2016-12-15T03:11:21.891Z,-6.33
2016-12-15T03:12:30.569Z,-6.28
2016-12-15T03:13:39.251Z,-6.27
2016-12-15T03:14:47.939Z,-6.33
2016-12-15T03:15:56.620Z,-6.34
2016-12-15T03:17:05.298Z,-6.33
2016-12-15T03:18:13.977Z,-6.41
2016-12-15T03:19:22.664Z,-6.33
2016-12-15T03:20:31.351Z,-6.38
2016-12-15T03:21:40.033Z,-6.36
2016-12-15T03:22:48.714Z,-6.36
2016-12-15T03:23:57.395Z,-6.36
2016-12-15T03:25:06.082Z,-6.36
2016-12-15T03:26:14.760Z,-6.36
2016-12-15T03:27:23.441Z,-6.36
2016-12-15T03:28:32.122Z,-6.31
2016-12-15T03:29:40.807Z,-6.26
2016-12-15T03:30:49.490Z,-6.31
2016-12-15T03:31:58.174Z,-6.3
2016-12-15T03:33:06.856Z,-6.33
2016-12-15T03:34:15.536Z,-6.3
2016-12-15T03:35:24.214Z,-6.28
2016-12-15T03:36:32.893Z,-6.36
2016-12-15T03:37:41.889Z,-6.31
2016-12-15T03:38:50.574Z,-6.3
2016-12-15T03:39:59.282Z,-6.3
2016-12-15T03:41:07.960Z,-6.34
2016-12-15T03:42:16.642Z,-6.38
2016-12-15T03:43:25.326Z,-6.36
2016-12-15T03:44:34.007Z,-6.38
2016-12-15T03:45:42.685Z,-6.39
2016-12-15T03:46:51.370Z,-6.39
2016-12-15T03:48:00.047Z,-6.39
2016-12-15T03:49:08.728Z,-6.34
2016-12-15T03:50:17.411Z,-6.31
2016-12-15T03:51:26.092Z,-6.36
2016-12-15T03:52:34.782Z,-6.3
2016-12-15T03:53:43.462Z,-6.34
2016-12-15T03:54:52.144Z,-6.31
2016-12-15T03:56:00.826Z,-6.27
2016-12-15T03:57:09.513Z,-6.26
2016-12-15T03:58:18.197Z,-6.34
2016-12-15T03:59:26.876Z,-6.34
2016-12-15T04:00:35.604Z,-6.56
2016-12-15T04:01:44.287Z,-6.61
2016-12-15T04:02:52.964Z,-6.71
2016-12-15T04:04:01.646Z,-6.89
2016-12-15T04:05:10.338Z,-7.06
2016-12-15T04:06:19.024Z,-7.3
2016-12-15T04:07:27.707Z,-7.36
2016-12-15T04:08:36.385Z,-7.41
2016-12-15T04:09:45.073Z,-7.52
2016-12-15T04:10:53.759Z,-7.57
2016-12-15T04:12:02.441Z,-7.56
2016-12-15T04:13:11.127Z,-7.75
2016-12-15T04:14:19.811Z,-7.73
2016-12-15T04:15:28.506Z,-7.8
2016-12-15T04:16:37.501Z,-7.85
2016-12-15T04:17:46.182Z,-7.89
2016-12-15T04:18:54.864Z,-7.89
2016-12-15T04:20:03.548Z,-7.95
2016-12-15T04:21:12.228Z,-7.92
2016-12-15T04:22:20.914Z,-7.85
2016-12-15T04:23:29.601Z,-7.83
2016-12-15T04:24:38.309Z,-7.92
2016-12-15T04:25:46.984Z,-7.83
2016-12-15T04:26:55.668Z,-7.84
2016-12-15T04:28:04.356Z,-7.99
2016-12-15T04:29:13.037Z,-7.98
2016-12-15T04:30:22.033Z,-8.17
2016-12-15T04:31:30.713Z,-8.17
2016-12-15T04:32:39.424Z,-8.11
2016-12-15T04:33:48.112Z,-8.23
2016-12-15T04:34:57.119Z,-8.14
2016-12-15T04:36:05.806Z,-8.17
2016-12-15T04:37:14.512Z,-8.18
2016-12-15T04:38:23.200Z,-8.21
2016-12-15T04:39:31.884Z,-8.2
2016-12-15T04:40:40.562Z,-8.18
2016-12-15T04:41:49.241Z,-8.26
2016-12-15T04:42:57.927Z,-8.24
2016-12-15T04:44:06.628Z,-8.36
2016-12-15T04:45:15.311Z,-8.35
2016-12-15T04:46:23.991Z,-8.41
2016-12-15T04:47:32.674Z,-8.34
2016-12-15T04:48:41.355Z,-8.32
2016-12-15T04:49:50.034Z,-8.38
2016-12-15T04:50:58.709Z,-8.41
2016-12-15T04:52:07.707Z,-8.47
2016-12-15T04:53:16.383Z,-8.44
2016-12-15T04:54:25.373Z,-8.56
2016-12-15T04:55:34.052Z,-8.54
2016-12-15T04:56:42.764Z,-8.6
2016-12-15T04:57:51.439Z,-8.59
2016-12-15T04:59:00.117Z,-8.59
2016-12-15T05:00:08.826Z,-8.6
2016-12-15T05:01:17.505Z,-8.52
2016-12-15T05:02:26.214Z,-8.6
2016-12-15T05:03:35.245Z,-8.64
2016-12-15T05:04:43.925Z,-8.64
2016-12-15T05:05:52.609Z,-8.6
2016-12-15T05:07:01.284Z,-8.59
2016-12-15T05:08:09.971Z,-8.64
2016-12-15T05:09:18.657Z,-8.67
2016-12-15T05:10:27.357Z,-8.68
2016-12-15T05:11:36.031Z,-8.65
2016-12-15T05:12:44.712Z,-8.75
2016-12-15T05:13:53.421Z,-8.67
2016-12-15T05:15:02.110Z,-8.78
2016-12-15T05:16:10.826Z,-8.71
2016-12-15T05:17:19.505Z,-8.67
2016-12-15T05:18:28.207Z,-8.65
2016-12-15T05:19:36.890Z,-8.67
2016-12-15T05:20:45.567Z,-8.71
2016-12-15T05:21:54.246Z,-8.7
2016-12-15T05:23:03.239Z,-8.74
2016-12-15T05:24:11.915Z,-8.65
2016-12-15T05:25:20.598Z,-8.64
2016-12-15T05:26:29.274Z,-8.77
2016-12-15T05:27:37.951Z,-8.65
2016-12-15T05:28:46.630Z,-8.7
2016-12-15T05:29:55.310Z,-8.75
2016-12-15T05:31:03.987Z,-8.7
2016-12-15T05:32:12.674Z,-8.77
2016-12-15T05:33:21.362Z,-8.77
2016-12-15T05:34:30.040Z,-8.77
2016-12-15T05:35:38.717Z,-8.84
2016-12-15T05:36:47.401Z,-8.78
2016-12-15T05:37:56.080Z,-8.77
2016-12-15T05:39:04.772Z,-8.71
2016-12-15T05:40:13.458Z,-8.6
2016-12-15T05:41:22.140Z,-8.7
2016-12-15T05:42:30.846Z,-8.71
2016-12-15T05:43:39.529Z,-8.71
2016-12-15T05:44:48.210Z,-8.74
2016-12-15T05:45:56.887Z,-8.65
2016-12-15T05:47:05.881Z,-8.71
2016-12-15T05:48:14.560Z,-8.85
2016-12-15T05:49:23.234Z,-8.7
2016-12-15T05:50:31.916Z,-8.67
2016-12-15T05:51:40.592Z,-8.68
2016-12-15T05:52:49.275Z,-8.74
2016-12-15T05:53:57.956Z,-8.68
2016-12-15T05:55:06.642Z,-8.71
2016-12-15T05:56:15.325Z,-8.71
2016-12-15T05:57:24.010Z,-8.75
2016-12-15T05:58:32.722Z,-8.71
2016-12-15T05:59:41.402Z,-8.71
2016-12-15T06:00:50.082Z,-8.6
2016-12-15T06:01:58.767Z,-8.59
2016-12-15T06:03:07.473Z,-8.59
2016-12-15T06:04:16.152Z,-8.56
2016-12-15T06:05:24.831Z,-8.46
2016-12-15T06:06:33.523Z,-8.52
2016-12-15T06:07:42.204Z,-8.47
2016-12-15T06:08:50.885Z,-8.49
2016-12-15T06:09:59.566Z,-8.5
2016-12-15T06:11:08.247Z,-8.52
2016-12-15T06:12:16.935Z,-8.49
2016-12-15T06:13:25.617Z,-8.52
2016-12-15T06:14:34.299Z,-8.41
2016-12-15T06:15:42.983Z,-8.47
2016-12-15T06:16:51.666Z,-8.53
2016-12-15T06:18:00.341Z,-8.39
2016-12-15T06:19:09.024Z,-8.36
2016-12-15T06:20:17.707Z,-8.39
2016-12-15T06:21:26.389Z,-8.35
2016-12-15T06:22:35.071Z,-8.38
2016-12-15T06:23:43.757Z,-8.46
2016-12-15T06:24:52.438Z,-8.38
2016-12-15T06:26:01.114Z,-8.42
2016-12-15T06:27:09.803Z,-8.52
2016-12-15T06:28:18.482Z,-8.39
2016-12-15T06:29:27.199Z,-8.35
2016-12-15T06:30:35.880Z,-8.44
2016-12-15T06:31:44.563Z,-8.44
2016-12-15T06:32:53.239Z,-8.49
2016-12-15T06:34:01.922Z,-8.5
2016-12-15T06:35:10.600Z,-8.52
2016-12-15T06:36:19.285Z,-8.59
2016-12-15T06:37:27.968Z,-8.53
2016-12-15T06:38:36.647Z,-8.59
2016-12-15T06:39:45.331Z,-8.65
2016-12-15T06:40:54.010Z,-8.56
2016-12-15T06:42:02.702Z,-8.57
2016-12-15T06:43:11.382Z,-8.62
2016-12-15T06:44:20.066Z,-8.67
2016-12-15T06:45:28.745Z,-8.64
2016-12-15T06:46:37.745Z,-8.64
2016-12-15T06:47:46.426Z,-8.67
2016-12-15T06:48:55.109Z,-8.62
2016-12-15T06:50:03.822Z,-8.64
2016-12-15T06:51:12.535Z,-8.64
2016-12-15T06:52:21.220Z,-8.62
2016-12-15T06:53:29.900Z,-8.64
2016-12-15T06:54:38.577Z,-8.54
2016-12-15T06:55:47.257Z,-8.65
2016-12-15T06:56:55.934Z,-8.62
2016-12-15T06:58:04.619Z,-8.59
2016-12-15T06:59:13.302Z,-8.62
2016-12-15T07:00:22.003Z,-8.56
2016-12-15T07:01:30.690Z,-8.59
2016-12-15T07:02:39.370Z,-8.59
2016-12-15T07:03:48.053Z,-8.54
2016-12-15T07:04:56.736Z,-8.64
2016-12-15T07:06:05.425Z,-8.59
2016-12-15T07:07:14.104Z,-8.65
2016-12-15T07:08:22.791Z,-8.54
2016-12-15T07:09:31.495Z,-8.54
2016-12-15T07:10:40.174Z,-8.56
2016-12-15T07:11:48.855Z,-8.57
2016-12-15T07:12:57.535Z,-8.64
2016-12-15T07:14:06.235Z,-8.59
2016-12-15T07:15:15.067Z,-8.54
2016-12-15T07:16:23.750Z,-8.59
2016-12-15T07:17:32.426Z,-8.59
2016-12-15T07:18:41.112Z,-8.5
2016-12-15T07:19:49.818Z,-8.49
2016-12-15T07:20:58.498Z,-8.47
2016-12-15T07:22:07.182Z,-8.49
2016-12-15T07:23:15.862Z,-8.44
2016-12-15T07:24:24.540Z,-8.38
2016-12-15T07:25:33.220Z,-8.53
2016-12-15T07:26:42.214Z,-8.39
2016-12-15T07:27:50.895Z,-8.44
2016-12-15T07:28:59.577Z,-8.42
2016-12-15T07:30:09.992Z,-8.47
2016-12-15T07:31:18.670Z,-8.46
2016-12-15T07:32:27.352Z,-8.42
2016-12-15T07:33:36.032Z,-8.35
2016-12-15T07:34:44.715Z,-8.36
2016-12-15T07:35:53.392Z,-8.34
2016-12-15T07:37:02.074Z,-8.35
2016-12-15T07:38:10.754Z,-8.36
2016-12-15T07:39:19.433Z,-8.24
2016-12-15T07:40:28.116Z,-8.23
2016-12-15T07:41:36.798Z,-8.18
2016-12-15T07:42:45.479Z,-8.23
2016-12-15T07:43:54.160Z,-8.18
2016-12-15T07:45:02.843Z,-8.14
2016-12-15T07:46:11.531Z,-8.07
2016-12-15T07:47:20.213Z,-8.1
2016-12-15T07:48:28.889Z,-8.11
2016-12-15T07:49:37.563Z,-7.95
2016-12-15T07:50:46.250Z,-7.92
2016-12-15T07:51:54.930Z,-7.85
2016-12-15T07:53:03.607Z,-7.92
2016-12-15T07:54:12.286Z,-7.88
2016-12-15T07:55:20.974Z,-7.83
2016-12-15T07:56:29.653Z,-7.73
2016-12-15T07:57:38.336Z,-7.74
2016-12-15T07:58:47.017Z,-7.73
2016-12-15T07:59:56.008Z,-7.7
2016-12-15T08:01:04.694Z,-7.59
2016-12-15T08:02:13.691Z,-7.57
2016-12-15T08:03:22.376Z,-7.53
2016-12-15T08:04:31.068Z,-7.56
2016-12-15T08:05:39.749Z,-7.56
2016-12-15T08:06:48.427Z,-7.57
2016-12-15T08:07:57.114Z,-7.52
2016-12-15T08:09:05.806Z,-7.59
2016-12-15T08:10:14.496Z,-7.63
2016-12-15T08:11:23.175Z,-7.66
2016-12-15T08:12:31.856Z,-7.84
2016-12-15T08:13:40.534Z,-7.96
2016-12-15T08:14:49.220Z,-7.96
2016-12-15T08:15:57.902Z,-8.02
2016-12-15T08:17:06.586Z,-8.08
2016-12-15T08:18:15.270Z,-8.05
2016-12-15T08:19:23.950Z,-8.1
2016-12-15T08:20:32.633Z,-8.17
2016-12-15T08:21:41.315Z,-8.11
2016-12-15T08:22:49.995Z,-8.23
2016-12-15T08:23:58.708Z,-8.23
2016-12-15T08:25:07.391Z,-8.26
2016-12-15T08:26:16.078Z,-8.15
2016-12-15T08:27:24.752Z,-8.05
2016-12-15T08:28:33.436Z,-8.08
2016-12-15T08:29:42.268Z,-8.07
2016-12-15T08:30:50.968Z,-8.07
2016-12-15T08:31:59.697Z,-7.99
2016-12-15T08:33:08.403Z,-7.88
2016-12-15T08:34:17.087Z,-7.92
2016-12-15T08:35:25.828Z,-7.83
2016-12-15T08:36:34.508Z,-7.84
2016-12-15T08:37:43.189Z,-7.85
2016-12-15T08:38:51.879Z,-7.74
2016-12-15T08:40:00.567Z,-7.66
2016-12-15T08:41:09.251Z,-7.7
2016-12-15T08:42:17.934Z,-7.7
2016-12-15T08:43:26.618Z,-7.62
2016-12-15T08:44:35.302Z,-7.53
2016-12-15T08:45:44.006Z,-7.56
2016-12-15T08:46:52.699Z,-7.6
2016-12-15T08:48:01.390Z,-7.48
2016-12-15T08:49:10.076Z,-7.46
2016-12-15T08:50:18.758Z,-7.55
2016-12-15T08:51:27.436Z,-7.59
2016-12-15T08:52:36.116Z,-7.56
2016-12-15T08:53:44.800Z,-7.53
2016-12-15T08:54:53.488Z,-7.44
2016-12-15T08:56:02.173Z,-7.45
2016-12-15T08:57:10.853Z,-7.38
2016-12-15T08:58:19.533Z,-7.28
2016-12-15T08:59:28.290Z,-7.32
2016-12-15T09:00:37.011Z,-7.17
2016-12-15T09:01:45.688Z,-7.15
2016-12-15T09:02:54.372Z,-7.14
2016-12-15T09:04:03.057Z,-7.02
2016-12-15T09:05:11.738Z,-7.06
2016-12-15T09:06:20.445Z,-7.23
2016-12-15T09:07:29.127Z,-7.3
2016-12-15T09:08:37.813Z,-7.27
2016-12-15T09:09:46.498Z,-7.34
2016-12-15T09:10:55.182Z,-7.3
2016-12-15T09:12:03.866Z,-7.23
2016-12-15T09:13:12.548Z,-7.23
2016-12-15T09:14:21.231Z,-7.24
2016-12-15T09:15:29.924Z,-7.21
2016-12-15T09:16:38.607Z,-7.3
2016-12-15T09:17:47.290Z,-7.38
2016-12-15T09:18:56.304Z,-7.41
2016-12-15T09:20:04.995Z,-7.34
2016-12-15T09:21:13.677Z,-7.42
2016-12-15T09:22:22.356Z,-7.44
2016-12-15T09:23:31.060Z,-7.46
2016-12-15T09:24:39.744Z,-7.38
2016-12-15T09:25:48.435Z,-7.36
2016-12-15T09:26:57.119Z,-7.35
2016-12-15T09:28:05.803Z,-7.34
2016-12-15T09:29:14.489Z,-7.52
2016-12-15T09:30:23.176Z,-7.5
2016-12-15T09:31:31.863Z,-7.5
2016-12-15T09:32:40.542Z,-7.46
2016-12-15T09:33:49.228Z,-7.5
2016-12-15T09:34:57.909Z,-7.46
2016-12-15T09:36:06.601Z,-7.42
2016-12-15T09:37:15.286Z,-7.34
2016-12-15T09:38:23.965Z,-7.28
2016-12-15T09:39:32.646Z,-7.15
2016-12-15T09:40:41.326Z,-7.1
2016-12-15T09:41:50.025Z,-7.24
2016-12-15T09:42:58.731Z,-7.25
2016-12-15T09:44:07.409Z,-7.3
2016-12-15T09:45:16.093Z,-7.27
2016-12-15T09:46:25.125Z,-7.25
2016-12-15T09:47:33.806Z,-7.23
2016-12-15T09:48:42.483Z,-7.15
2016-12-15T09:49:51.164Z,-7.07
2016-12-15T09:50:59.846Z,-7.07
2016-12-15T09:52:08.530Z,-6.97
2016-12-15T09:53:17.211Z,-6.92
2016-12-15T09:54:25.899Z,-6.79
2016-12-15T09:55:34.581Z,-6.71
2016-12-15T09:56:43.267Z,-6.66
2016-12-15T09:57:51.957Z,-6.6
2016-12-15T09:59:00.647Z,-6.54
2016-12-15T10:00:09.340Z,-6.48
2016-12-15T10:01:18.028Z,-6.49
2016-12-15T10:02:26.711Z,-6.39
2016-12-15T10:03:35.393Z,-6.41
2016-12-15T10:04:44.070Z,-6.61
2016-12-15T10:05:52.754Z,-6.56
2016-12-15T10:07:01.444Z,-6.71
2016-12-15T10:08:10.127Z,-6.68
2016-12-15T10:09:18.810Z,-6.76
2016-12-15T10:10:27.498Z,-6.76
2016-12-15T10:11:36.183Z,-6.79
2016-12-15T10:12:45.176Z,-6.75
2016-12-15T10:13:53.865Z,-6.79
2016-12-15T10:15:02.558Z,-6.76
2016-12-15T10:16:11.238Z,-6.79
2016-12-15T10:17:19.924Z,-6.78
2016-12-15T10:18:28.605Z,-6.79
2016-12-15T10:19:37.293Z,-6.64
2016-12-15T10:20:45.988Z,-6.56
2016-12-15T10:21:54.675Z,-6.56
2016-12-15T10:23:03.363Z,-6.56
2016-12-15T10:24:12.049Z,-6.48
2016-12-15T10:25:20.743Z,-6.38
2016-12-15T10:26:29.425Z,-6.39
2016-12-15T10:27:38.105Z,-6.26
2016-12-15T10:28:46.797Z,-6.26
2016-12-15T10:29:55.471Z,-6.27
2016-12-15T10:31:04.158Z,-6.27
2016-12-15T10:32:13.157Z,-6.15
2016-12-15T10:33:21.837Z,-6.18
2016-12-15T10:34:30.522Z,-6.06
2016-12-15T10:35:39.207Z,-6.09
2016-12-15T10:36:47.893Z,-6.06
2016-12-15T10:37:56.576Z,-5.97
2016-12-15T10:39:05.581Z,-5.94
2016-12-15T10:40:14.266Z,-5.95
2016-12-15T10:41:22.973Z,-5.92
2016-12-15T10:42:31.656Z,-5.88
2016-12-15T10:43:40.339Z,-5.78
2016-12-15T10:44:49.027Z,-5.82
2016-12-15T10:45:57.712Z,-5.6
2016-12-15T10:47:06.397Z,-5.58
2016-12-15T10:48:15.082Z,-5.48
2016-12-15T10:49:23.767Z,-5.52
2016-12-15T10:50:32.451Z,-5.39
2016-12-15T10:51:41.142Z,-5.37
2016-12-15T10:52:49.828Z,-5.25
2016-12-15T10:53:58.515Z,-5.17
2016-12-15T10:55:07.196Z,-5.06
2016-12-15T10:56:15.881Z,-5.02
2016-12-15T10:57:24.562Z,-4.88
2016-12-15T10:58:33.246Z,-4.83
2016-12-15T10:59:41.931Z,-4.81
2016-12-15T11:00:50.620Z,-4.79
2016-12-15T11:01:59.302Z,-4.76
2016-12-15T11:03:07.986Z,-4.71
2016-12-15T11:04:16.667Z,-4.7
2016-12-15T11:05:25.354Z,-4.59
2016-12-15T11:06:34.033Z,-4.61
2016-12-15T11:07:42.722Z,-4.52
2016-12-15T11:08:51.406Z,-4.55
2016-12-15T11:10:00.421Z,-4.59
2016-12-15T11:11:09.110Z,-4.61
2016-12-15T11:12:17.792Z,-4.56
2016-12-15T11:13:26.477Z,-4.55
2016-12-15T11:14:35.158Z,-4.53
2016-12-15T11:15:43.846Z,-4.42
2016-12-15T11:16:52.527Z,-4.38
2016-12-15T11:18:01.215Z,-4.42
2016-12-15T11:19:09.898Z,-4.33
2016-12-15T11:20:18.581Z,-4.24
2016-12-15T11:21:27.263Z,-4.34
2016-12-15T11:22:36.275Z,-4.33
2016-12-15T11:23:44.957Z,-4.37
2016-12-15T11:24:53.659Z,-4.42
2016-12-15T11:26:02.343Z,-4.49
2016-12-15T11:27:11.029Z,-4.61
2016-12-15T11:28:19.711Z,-4.56
2016-12-15T11:29:28.401Z,-4.56
2016-12-15T11:30:37.086Z,-4.58
2016-12-15T11:31:45.769Z,-4.67
2016-12-15T11:32:54.460Z,-4.67
2016-12-15T11:34:03.150Z,-4.67
2016-12-15T11:35:11.835Z,-4.7
2016-12-15T11:36:20.517Z,-4.69
2016-12-15T11:37:29.197Z,-4.67
2016-12-15T11:38:37.896Z,-4.71
2016-12-15T11:39:46.586Z,-4.74
2016-12-15T11:40:55.269Z,-4.76
2016-12-15T11:42:03.960Z,-4.81
2016-12-15T11:43:12.643Z,-4.94
2016-12-15T11:44:21.333Z,-4.95
2016-12-15T11:45:30.037Z,-5.05
2016-12-15T11:46:38.721Z,-5.08
2016-12-15T11:47:47.402Z,-5.16
2016-12-15T11:48:56.095Z,-5.1
2016-12-15T11:50:04.781Z,-5.19
2016-12-15T11:51:13.462Z,-5.27
2016-12-15T11:52:22.153Z,-5.25
2016-12-15T11:53:30.838Z,-5.25
2016-12-15T11:54:39.520Z,-5.37
2016-12-15T11:55:48.203Z,-5.31
2016-12-15T11:56:56.882Z,-5.45
2016-12-15T11:58:05.566Z,-5.34
2016-12-15T11:59:14.257Z,-5.39
2016-12-15T12:00:22.936Z,-5.48
2016-12-15T12:01:31.620Z,-5.39
2016-12-15T12:02:40.325Z,-5.55
2016-12-15T12:03:49.007Z,-5.53
2016-12-15T12:04:57.694Z,-5.5
2016-12-15T12:06:06.382Z,-5.48
2016-12-15T12:07:15.067Z,-5.37
2016-12-15T12:08:23.749Z,-5.28
2016-12-15T12:09:32.441Z,-5.2
2016-12-15T12:10:41.136Z,-5.28
2016-12-15T12:11:49.815Z,-5.25
2016-12-15T12:12:58.495Z,-5.2
2016-12-15T12:14:07.179Z,-5.13
2016-12-15T12:15:15.864Z,-5.12
2016-12-15T12:16:24.545Z,-5.17
2016-12-15T12:17:33.231Z,-5.1
2016-12-15T12:18:41.919Z,-5.12
2016-12-15T12:19:50.598Z,-5.16
2016-12-15T12:20:59.279Z,-5.12
2016-12-15T12:22:07.967Z,-5.2
2016-12-15T12:23:16.648Z,-5.21
2016-12-15T12:24:25.398Z,-5.28
2016-12-15T12:25:34.089Z,-5.46
2016-12-15T12:26:42.766Z,-5.46
2016-12-15T12:27:51.448Z,-5.43
2016-12-15T12:29:00.450Z,-5.39
2016-12-15T12:30:09.136Z,-5.59
2016-12-15T12:31:17.820Z,-5.64
2016-12-15T12:32:26.504Z,-5.71
2016-12-15T12:33:35.192Z,-5.68
2016-12-15T12:34:43.873Z,-5.68
2016-12-15T12:35:52.550Z,-5.7
2016-12-15T12:37:01.228Z,-5.77
2016-12-15T12:38:09.910Z,-5.68
2016-12-15T12:39:18.920Z,-5.66
2016-12-15T12:40:27.598Z,-5.73
2016-12-15T12:41:36.282Z,-5.71
2016-12-15T12:42:44.974Z,-5.73
2016-12-15T12:43:53.659Z,-5.67
2016-12-15T12:45:02.343Z,-5.64
2016-12-15T12:46:11.042Z,-5.59
2016-12-15T12:47:19.732Z,-5.59
2016-12-15T12:48:28.416Z,-5.6
2016-12-15T12:49:37.465Z,-5.5
2016-12-15T12:50:46.150Z,-5.43
2016-12-15T12:51:54.840Z,-5.53
2016-12-15T12:53:03.524Z,-5.52
2016-12-15T12:54:12.207Z,-5.5
2016-12-15T12:55:20.893Z,-5.49
2016-12-15T12:56:29.581Z,-5.5
2016-12-15T12:57:38.279Z,-5.49
2016-12-15T12:58:46.962Z,-5.41
2016-12-15T12:59:55.683Z,-5.5
2016-12-15T13:01:04.376Z,-5.41
2016-12-15T13:02:13.381Z,-5.45
2016-12-15T13:03:22.064Z,-5.41
2016-12-15T13:04:30.762Z,-5.38
2016-12-15T13:05:39.445Z,-5.46
2016-12-15T13:06:48.467Z,-5.39
2016-12-15T13:07:57.159Z,-5.41
2016-12-15T13:09:05.849Z,-5.43
2016-12-15T13:10:14.532Z,-5.43
2016-12-15T13:11:23.216Z,-5.43
2016-12-15T13:12:31.896Z,-5.41
2016-12-15T13:13:40.584Z,-5.46
2016-12-15T13:14:49.270Z,-5.45
2016-12-15T13:15:57.955Z,-5.37
2016-12-15T13:17:06.653Z,-5.27
2016-12-15T13:18:15.336Z,-5.23
2016-12-15T13:19:24.025Z,-5.21
2016-12-15T13:20:32.713Z,-5.2
2016-12-15T13:21:41.402Z,-5.13
2016-12-15T13:22:50.081Z,-5.1
2016-12-15T13:23:58.763Z,-5.16
2016-12-15T13:25:07.454Z,-5.02
2016-12-15T13:26:16.134Z,-5.02
2016-12-15T13:27:24.815Z,-5
2016-12-15T13:28:33.497Z,-5
2016-12-15T13:29:42.181Z,-5.01
2016-12-15T13:30:50.871Z,-4.92
2016-12-15T13:31:59.557Z,-4.83
2016-12-15T13:33:08.241Z,-4.97
2016-12-15T13:34:16.932Z,-4.95
2016-12-15T13:35:25.616Z,-4.9
2016-12-15T13:36:34.296Z,-4.94
2016-12-15T13:37:43.291Z,-4.95
2016-12-15T13:38:52.011Z,-4.87
2016-12-15T13:40:00.698Z,-4.92
2016-12-15T13:41:09.375Z,-4.98
2016-12-15T13:42:18.057Z,-4.9
2016-12-15T13:43:26.743Z,-4.95
2016-12-15T13:44:35.429Z,-4.97
2016-12-15T13:45:44.112Z,-5.12
2016-12-15T13:46:52.798Z,-5.06
2016-12-15T13:48:01.492Z,-5.13
2016-12-15T13:49:10.176Z,-5.13
2016-12-15T13:50:18.852Z,-5.16
2016-12-15T13:51:27.541Z,-5.27
2016-12-15T13:52:36.224Z,-5.39
2016-12-15T13:53:44.905Z,-5.45
2016-12-15T13:54:53.590Z,-5.43
2016-12-15T13:56:02.593Z,-5.45
2016-12-15T13:57:11.285Z,-5.39
2016-12-15T13:58:19.972Z,-5.41
2016-12-15T13:59:28.656Z,-5.37
2016-12-15T14:00:37.339Z,-5.41
2016-12-15T14:01:46.017Z,-5.41
2016-12-15T14:02:54.706Z,-5.39
2016-12-15T14:04:03.393Z,-5.5
2016-12-15T14:05:12.074Z,-5.41
2016-12-15T14:06:20.759Z,-5.56
2016-12-15T14:07:29.780Z,-5.56
2016-12-15T14:08:38.460Z,-5.56
2016-12-15T14:09:47.143Z,-5.56
2016-12-15T14:10:55.828Z,-5.56
2016-12-15T14:12:04.509Z,-5.53
2016-12-15T14:13:13.216Z,-5.43
2016-12-15T14:14:21.897Z,-5.49
2016-12-15T14:15:30.577Z,-5.43
2016-12-15T14:16:39.269Z,-5.5
2016-12-15T14:17:47.948Z,-5.55
2016-12-15T14:18:56.632Z,-5.45
2016-12-15T14:20:05.317Z,-5.55
2016-12-15T14:21:14.005Z,-5.5
2016-12-15T14:22:22.693Z,-5.55
2016-12-15T14:23:31.380Z,-5.52
2016-12-15T14:24:40.096Z,-5.41
2016-12-15T14:25:48.777Z,-5.5
2016-12-15T14:26:57.459Z,-5.55
2016-12-15T14:28:06.143Z,-5.53
2016-12-15T14:29:14.823Z,-5.59
2016-12-15T14:30:23.507Z,-5.56
2016-12-15T14:31:32.187Z,-5.59
2016-12-15T14:32:40.869Z,-5.56
2016-12-15T14:33:49.553Z,-5.59
2016-12-15T14:34:58.238Z,-5.59
2016-12-15T14:36:07.235Z,-5.59
2016-12-15T14:37:15.913Z,-5.49
2016-12-15T14:38:24.594Z,-5.5
2016-12-15T14:39:33.276Z,-5.5
2016-12-15T14:40:41.953Z,-5.45
2016-12-15T14:41:50.636Z,-5.48
2016-12-15T14:42:59.317Z,-5.52
2016-12-15T14:44:08.007Z,-5.48
2016-12-15T14:45:16.690Z,-5.53
2016-12-15T14:46:25.371Z,-5.48
2016-12-15T14:47:34.385Z,-5.53